createdAt,value
2022-11-14T00:04:18.230Z,51.17
2022-11-14T00:09:40.778Z,51.18
2022-11-14T00:15:01.266Z,51.17
2022-11-14T00:20:21.860Z,51.25
2022-11-14T00:25:44.495Z,51.30
2022-11-14T00:31:05.467Z,51.33
2022-11-14T00:36:26.142Z,51.20
2022-11-14T00:41:46.929Z,51.25
2022-11-14T00:47:07.514Z,51.26
2022-11-14T00:52:28.389Z,51.29
2022-11-14T00:57:49.038Z,51.35
2022-11-14T01:03:09.868Z,51.16
2022-11-14T01:08:30.913Z,51.28
2022-11-14T01:13:51.326Z,51.22
2022-11-14T01:19:11.793Z,51.30
2022-11-14T01:24:33.989Z,51.42
2022-11-14T01:29:54.640Z,51.35
2022-11-14T01:35:15.332Z,51.69
2022-11-14T01:40:43.262Z,51.54
2022-11-14T01:46:24.409Z,51.66
2022-11-14T01:51:53.729Z,51.72
2022-11-14T01:57:18.535Z,51.72
2022-11-14T02:02:39.407Z,51.77
2022-11-14T02:08:00.213Z,51.90
2022-11-14T02:13:20.900Z,51.83
2022-11-14T02:18:41.750Z,51.62
2022-11-14T02:24:02.516Z,51.43
2022-11-14T02:29:23.196Z,51.26
2022-11-14T02:34:43.925Z,51.42
2022-11-14T02:40:04.986Z,51.55
2022-11-14T02:45:25.699Z,51.42
2022-11-14T02:50:49.278Z,51.37
2022-11-14T02:56:09.888Z,51.33
2022-11-14T03:01:30.593Z,51.46
2022-11-14T03:06:51.111Z,51.31
2022-11-14T03:12:11.966Z,51.16
2022-11-14T03:17:34.069Z,51.30
2022-11-14T03:22:54.622Z,51.17
2022-11-14T03:28:14.973Z,51.55
2022-11-14T03:33:36.263Z,51.45
2022-11-14T03:38:56.876Z,51.40
2022-11-14T03:44:17.370Z,51.36
2022-11-14T03:49:37.916Z,51.47
2022-11-14T03:54:58.511Z,51.58
2022-11-14T04:00:19.417Z,51.41
2022-11-14T04:05:40.059Z,51.33
2022-11-14T04:11:00.452Z,51.34
2022-11-14T04:16:21.269Z,51.53
2022-11-14T04:21:41.723Z,51.49
2022-11-14T04:27:02.074Z,51.37
2022-11-14T04:32:22.752Z,51.41
2022-11-14T04:37:43.377Z,51.15
2022-11-14T04:43:04.274Z,51.59
2022-11-14T04:48:25.169Z,51.38
2022-11-14T04:53:46.218Z,51.29
2022-11-14T04:59:06.503Z,51.36
2022-11-14T05:04:27.041Z,51.23
2022-11-14T05:09:47.654Z,51.52
2022-11-14T05:15:08.702Z,51.41
2022-11-14T05:20:29.061Z,51.12
2022-11-14T05:26:03.908Z,51.13
2022-11-14T05:31:24.446Z,51.31
2022-11-14T05:36:45.286Z,51.37
2022-11-14T05:42:06.466Z,51.20
2022-11-14T05:47:27.167Z,51.16
2022-11-14T05:52:47.609Z,51.22
2022-11-14T05:58:08.239Z,51.37
2022-11-14T06:03:34.621Z,51.25
2022-11-14T06:08:55.343Z,51.07
2022-11-14T06:14:16.223Z,51.11
2022-11-14T06:19:36.626Z,51.38
2022-11-14T06:24:57.411Z,51.29
2022-11-14T06:30:18.042Z,51.35
2022-11-14T06:35:39.127Z,51.17
2022-11-14T06:41:14.155Z,51.36
2022-11-14T06:46:34.954Z,51.38
2022-11-14T06:51:55.420Z,51.44
2022-11-14T06:57:16.136Z,51.38
2022-11-14T07:02:36.816Z,51.20
2022-11-14T07:07:58.033Z,51.11
2022-11-14T07:13:18.718Z,51.51
2022-11-14T07:18:39.337Z,51.40
2022-11-14T07:23:59.953Z,51.23
2022-11-14T07:29:20.492Z,51.31
2022-11-14T07:34:41.265Z,51.26
2022-11-14T07:40:01.701Z,51.41
2022-11-14T07:45:22.402Z,51.32
2022-11-14T07:50:42.969Z,51.11
2022-11-14T07:56:06.369Z,51.31
2022-11-14T08:01:26.796Z,51.15
2022-11-14T08:06:47.750Z,51.31
2022-11-14T08:12:08.396Z,51.15
2022-11-14T08:17:30.621Z,51.27
2022-11-14T08:22:51.293Z,51.30
2022-11-14T08:28:12.022Z,51.42
2022-11-14T08:33:32.727Z,51.30
2022-11-14T08:38:57.519Z,51.02
2022-11-14T08:44:20.788Z,50.98
2022-11-14T08:49:41.604Z,51.09
2022-11-14T08:55:02.355Z,51.25
2022-11-14T09:00:23.351Z,51.24
2022-11-14T09:05:44.893Z,51.13
2022-11-14T09:11:08.393Z,51.11
2022-11-14T09:16:30.616Z,51.07
2022-11-14T09:21:51.110Z,51.13
2022-11-14T09:27:11.662Z,51.31
2022-11-14T09:32:32.308Z,51.17
2022-11-14T09:38:00.418Z,51.05
2022-11-14T09:43:35.177Z,51.20
2022-11-14T09:48:56.791Z,51.28
2022-11-14T09:54:26.355Z,51.38
2022-11-14T09:59:48.022Z,51.38
2022-11-14T10:05:20.146Z,51.47
2022-11-14T10:10:52.525Z,51.72
2022-11-14T10:16:48.913Z,51.57
2022-11-14T10:22:09.767Z,51.60
2022-11-14T10:27:58.517Z,51.73
2022-11-14T10:33:33.958Z,51.84
2022-11-14T10:39:12.197Z,51.86
2022-11-14T10:44:38.443Z,51.96
2022-11-14T10:50:32.057Z,52.20
2022-11-14T10:56:04.348Z,52.27
2022-11-14T11:01:40.587Z,51.98
2022-11-14T11:07:07.035Z,51.77
2022-11-14T11:12:49.153Z,51.94
2022-11-14T11:18:32.868Z,52.04
2022-11-14T11:23:57.922Z,51.87
2022-11-14T11:29:20.060Z,51.87
2022-11-14T11:34:41.140Z,51.83
2022-11-14T11:40:05.604Z,52.00
2022-11-14T11:45:28.269Z,51.99
2022-11-14T11:50:50.164Z,51.95
2022-11-14T11:56:20.282Z,51.84
2022-11-14T12:01:41.230Z,51.90
2022-11-14T12:07:10.004Z,52.01
2022-11-14T12:12:49.677Z,52.08
2022-11-14T12:18:25.548Z,51.92
2022-11-14T12:23:57.777Z,51.96
2022-11-14T12:29:48.550Z,51.92
2022-11-14T12:35:18.575Z,52.17
2022-11-14T12:40:43.011Z,52.20
2022-11-14T12:46:13.180Z,52.21
2022-11-14T12:51:33.518Z,52.01
2022-11-14T12:57:04.056Z,52.07
2022-11-14T13:02:45.464Z,52.25
2022-11-14T13:08:40.949Z,52.19
2022-11-14T13:14:21.091Z,52.04
2022-11-14T13:20:06.034Z,52.04
2022-11-14T13:25:27.190Z,52.07
2022-11-14T13:31:06.193Z,52.13
2022-11-14T13:36:54.193Z,51.74
2022-11-14T13:42:27.010Z,51.66
2022-11-14T13:48:05.795Z,51.75
2022-11-14T13:53:29.939Z,51.82
2022-11-14T13:59:04.740Z,51.88
2022-11-14T14:04:45.458Z,51.84
2022-11-14T14:10:30.483Z,52.11
2022-11-14T14:16:09.662Z,52.20
2022-11-14T14:21:36.060Z,52.37
2022-11-14T14:27:08.400Z,52.19
2022-11-14T14:32:28.984Z,51.98
2022-11-14T14:37:54.182Z,52.13
2022-11-14T14:43:26.342Z,52.24
2022-11-14T14:48:46.722Z,52.32
2022-11-14T14:54:20.474Z,52.15
2022-11-14T14:59:42.465Z,52.30
2022-11-14T15:05:04.073Z,52.10
2022-11-14T15:10:31.385Z,52.16
2022-11-14T15:15:53.296Z,52.15
2022-11-14T15:21:23.416Z,52.10
2022-11-14T15:26:52.448Z,52.01
2022-11-14T15:32:20.020Z,51.95
2022-11-14T15:37:40.861Z,52.15
2022-11-14T15:43:21.632Z,51.99
2022-11-14T15:48:42.352Z,51.89
2022-11-14T15:54:03.168Z,51.82
2022-11-14T15:59:24.767Z,51.77
2022-11-14T16:04:47.892Z,51.74
2022-11-14T16:10:20.053Z,51.62
2022-11-14T16:15:40.913Z,51.48
2022-11-14T16:21:01.866Z,51.70
2022-11-14T16:26:22.373Z,51.78
2022-11-14T16:31:43.321Z,51.59
2022-11-14T16:37:04.209Z,51.60
2022-11-14T16:42:25.027Z,51.73
2022-11-14T16:47:45.386Z,51.54
2022-11-14T16:53:06.279Z,51.75
2022-11-14T16:58:26.831Z,51.77
2022-11-14T17:03:47.442Z,51.73
2022-11-14T17:09:07.979Z,51.54
2022-11-14T17:14:28.782Z,51.67
2022-11-14T17:19:49.749Z,51.64
2022-11-14T17:25:10.734Z,51.53
2022-11-14T17:30:31.552Z,51.57
2022-11-14T17:35:52.170Z,51.81
2022-11-14T17:41:12.910Z,51.64
2022-11-14T17:46:33.800Z,51.73
2022-11-14T17:51:54.511Z,51.62
2022-11-14T17:57:15.281Z,51.59
2022-11-14T18:02:37.830Z,51.63
2022-11-14T18:07:58.293Z,51.76
2022-11-14T18:13:19.024Z,51.71
2022-11-14T18:18:40.412Z,51.59
2022-11-14T18:24:01.015Z,51.64
2022-11-14T18:29:21.441Z,51.62
2022-11-14T18:34:42.248Z,51.81
2022-11-14T18:40:02.815Z,51.70
2022-11-14T18:45:23.431Z,51.64
2022-11-14T18:50:43.900Z,51.54
2022-11-14T18:56:06.130Z,51.70
2022-11-14T19:01:29.890Z,51.71
2022-11-14T19:06:50.513Z,51.60
2022-11-14T19:12:22.196Z,51.29
2022-11-14T19:17:43.268Z,51.41
2022-11-14T19:23:03.999Z,51.45
2022-11-14T19:28:25.820Z,51.64
2022-11-14T19:33:46.830Z,51.61
2022-11-14T19:39:07.350Z,51.52
2022-11-14T19:44:28.169Z,51.56
2022-11-14T19:49:48.634Z,51.51
2022-11-14T19:55:09.521Z,51.47
2022-11-14T20:00:29.957Z,51.61
2022-11-14T20:05:50.284Z,51.38
2022-11-14T20:11:11.437Z,51.19
2022-11-14T20:16:34.532Z,51.48
2022-11-14T20:21:55.745Z,51.56
2022-11-14T20:27:16.105Z,51.68
2022-11-14T20:32:36.822Z,51.81
2022-11-14T20:38:00.542Z,51.94
2022-11-14T20:43:25.403Z,51.70
2022-11-14T20:48:46.921Z,51.83
2022-11-14T20:54:09.592Z,51.96
2022-11-14T20:59:30.022Z,51.86
2022-11-14T21:04:50.884Z,51.96
2022-11-14T21:10:30.160Z,51.94
2022-11-14T21:15:50.910Z,52.10
2022-11-14T21:21:16.731Z,52.08
2022-11-14T21:26:39.162Z,51.99
2022-11-14T21:31:59.875Z,52.01
2022-11-14T21:37:20.359Z,51.77
2022-11-14T21:42:42.186Z,51.60
2022-11-14T21:48:02.980Z,51.58
2022-11-14T21:53:23.837Z,51.53
2022-11-14T21:58:45.215Z,51.46
2022-11-14T22:04:12.516Z,51.47
2022-11-14T22:09:33.939Z,51.59
2022-11-14T22:14:54.786Z,51.62
2022-11-14T22:20:15.423Z,51.53
2022-11-14T22:25:36.305Z,51.43
2022-11-14T22:31:18.727Z,51.43
2022-11-14T22:36:39.212Z,51.65
2022-11-14T22:41:59.932Z,51.68
2022-11-14T22:47:20.338Z,51.63
2022-11-14T22:52:40.898Z,51.47
2022-11-14T22:58:01.176Z,51.48
2022-11-14T23:03:22.838Z,51.48
2022-11-14T23:08:43.516Z,51.67
2022-11-14T23:14:04.466Z,51.64
2022-11-14T23:19:25.106Z,51.42
2022-11-14T23:24:45.684Z,51.52
2022-11-14T23:30:06.978Z,51.64
2022-11-14T23:35:28.090Z,51.72
2022-11-14T23:40:53.314Z,51.37
2022-11-14T23:46:14.136Z,51.63
2022-11-14T23:51:35.001Z,51.59
2022-11-14T23:56:57.774Z,51.57
